createdAt,value
2023-06-18T00:02:25.618Z,65.30
2023-06-18T00:04:52.751Z,65.40
2023-06-18T00:07:19.883Z,65.40
2023-06-18T00:09:46.911Z,65.50
2023-06-18T00:12:14.045Z,65.40
2023-06-18T00:14:41.489Z,65.60
2023-06-18T00:17:09.757Z,65.60
2023-06-18T00:19:36.835Z,65.50
2023-06-18T00:22:03.948Z,65.50
2023-06-18T00:24:31.186Z,65.70
2023-06-18T00:26:58.215Z,65.70
2023-06-18T00:29:25.287Z,65.60
2023-06-18T00:31:52.290Z,65.70
2023-06-18T00:34:19.354Z,65.70
2023-06-18T00:36:51.952Z,66.00
2023-06-18T00:39:19.000Z,66.00
2023-06-18T00:41:47.619Z,66.70
2023-06-18T00:44:14.869Z,66.00
2023-06-18T00:46:43.266Z,66.10
2023-06-18T00:49:10.522Z,66.00
2023-06-18T00:51:37.560Z,66.10
2023-06-18T00:54:04.717Z,66.10
2023-06-18T00:56:32.599Z,66.10
2023-06-18T00:59:00.565Z,66.10
2023-06-18T01:01:29.509Z,66.10
2023-06-18T01:03:58.462Z,66.10
2023-06-18T01:06:27.488Z,66.20
2023-06-18T01:08:55.367Z,66.20
2023-06-18T01:11:23.093Z,66.20
2023-06-18T01:13:51.818Z,66.30
2023-06-18T01:16:24.416Z,66.30
2023-06-18T01:18:53.056Z,67.10
2023-06-18T01:21:22.414Z,67.80
2023-06-18T01:24:10.162Z,67.20
2023-06-18T01:26:38.038Z,67.00
2023-06-18T01:29:05.258Z,67.00
2023-06-18T01:31:37.883Z,67.20
2023-06-18T01:34:08.964Z,67.50
2023-06-18T01:36:52.435Z,67.70
2023-06-18T01:39:25.853Z,67.90
2023-06-18T01:41:57.981Z,68.00
2023-06-18T01:44:25.912Z,68.20
2023-06-18T01:46:54.247Z,68.40
2023-06-18T01:49:22.256Z,68.60
2023-06-18T01:51:51.234Z,68.70
2023-06-18T01:54:19.260Z,68.90
2023-06-18T01:56:46.498Z,69.70
2023-06-18T01:59:13.688Z,71.00
2023-06-18T02:01:42.177Z,71.90
2023-06-18T02:04:09.232Z,71.00
2023-06-18T02:06:36.306Z,71.40
2023-06-18T02:09:04.977Z,70.70
2023-06-18T02:11:32.038Z,71.30
2023-06-18T02:13:59.046Z,71.60
2023-06-18T02:16:26.288Z,70.60
2023-06-18T02:18:53.378Z,73.00
2023-06-18T02:21:21.257Z,71.80
2023-06-18T02:23:48.270Z,72.10
2023-06-18T02:26:18.281Z,72.00
2023-06-18T02:28:45.870Z,73.10
2023-06-18T02:31:12.919Z,71.30
2023-06-18T02:33:39.973Z,71.20
2023-06-18T02:36:11.188Z,70.80
2023-06-18T02:38:40.865Z,70.90
2023-06-18T02:41:07.807Z,70.70
2023-06-18T02:43:37.711Z,71.10
2023-06-18T02:46:04.863Z,71.00
2023-06-18T02:48:31.908Z,71.10
2023-06-18T02:50:59.080Z,71.00
2023-06-18T02:53:26.336Z,70.90
2023-06-18T02:55:53.376Z,71.00
2023-06-18T02:58:29.727Z,71.10
2023-06-18T03:01:00.431Z,71.20
2023-06-18T03:03:30.094Z,71.30
2023-06-18T03:05:59.455Z,71.10
2023-06-18T03:08:26.946Z,71.00
2023-06-18T03:10:55.812Z,72.80
2023-06-18T03:13:22.925Z,78.50
2023-06-18T03:15:53.292Z,78.50
2023-06-18T03:18:21.332Z,74.40
2023-06-18T03:20:48.803Z,73.60
2023-06-18T03:23:15.820Z,73.40
2023-06-18T03:25:47.262Z,72.90
2023-06-18T03:28:19.608Z,72.80
2023-06-18T03:30:46.776Z,72.90
2023-06-18T03:33:14.189Z,73.30
2023-06-18T03:35:43.127Z,73.30
2023-06-18T03:38:10.527Z,75.60
2023-06-18T03:40:37.710Z,75.90
2023-06-18T03:43:05.770Z,74.60
2023-06-18T03:45:35.245Z,75.00
2023-06-18T03:48:03.185Z,75.70
2023-06-18T03:50:38.595Z,75.70
2023-06-18T03:53:07.069Z,77.10
2023-06-18T03:55:36.383Z,75.90
2023-06-18T03:58:03.825Z,77.20
2023-06-18T04:00:32.344Z,75.90
2023-06-18T04:02:59.650Z,76.20
2023-06-18T04:05:26.658Z,78.70
2023-06-18T04:07:54.450Z,77.00
2023-06-18T04:10:22.325Z,77.50
2023-06-18T04:12:49.676Z,78.60
2023-06-18T04:15:17.102Z,78.50
2023-06-18T04:17:44.263Z,78.80
2023-06-18T04:20:14.501Z,79.10
2023-06-18T04:22:41.986Z,79.50
2023-06-18T04:25:11.265Z,80.70
2023-06-18T04:27:39.802Z,80.30
2023-06-18T04:30:07.302Z,80.70
2023-06-18T04:32:34.310Z,82.00
2023-06-18T04:35:05.359Z,80.90
2023-06-18T04:37:33.371Z,81.20
2023-06-18T04:40:00.731Z,81.60
2023-06-18T04:42:29.009Z,81.10
2023-06-18T04:44:55.973Z,81.30
2023-06-18T04:47:24.083Z,81.20
2023-06-18T04:49:51.649Z,81.90
2023-06-18T04:52:18.632Z,81.50
2023-06-18T04:54:46.688Z,81.00
2023-06-18T04:57:13.636Z,81.90
2023-06-18T04:59:41.140Z,82.10
2023-06-18T05:02:10.387Z,81.10
2023-06-18T05:04:37.722Z,82.00
2023-06-18T05:07:04.877Z,81.80
2023-06-18T05:09:34.106Z,81.50
2023-06-18T05:12:01.670Z,81.40
2023-06-18T05:14:30.019Z,81.20
2023-06-18T05:16:57.269Z,81.00
2023-06-18T05:19:24.920Z,81.10
2023-06-18T05:21:52.024Z,81.10
2023-06-18T05:24:25.259Z,81.20
2023-06-18T05:26:52.529Z,81.80
2023-06-18T05:29:19.859Z,81.40
2023-06-18T05:31:49.542Z,81.30
2023-06-18T05:34:25.451Z,81.30
2023-06-18T05:36:52.438Z,81.60
2023-06-18T05:39:19.490Z,81.30
2023-06-18T05:41:46.781Z,81.40
2023-06-18T05:44:14.820Z,83.90
2023-06-18T05:46:41.861Z,82.10
2023-06-18T05:49:09.212Z,82.00
2023-06-18T05:51:37.016Z,82.00
2023-06-18T05:54:05.918Z,81.90
2023-06-18T05:56:33.286Z,82.50
2023-06-18T05:59:00.300Z,82.40
2023-06-18T06:01:34.455Z,90.00
2023-06-18T06:04:02.318Z,83.90
2023-06-18T06:06:30.114Z,85.10
2023-06-18T06:08:57.116Z,85.40
2023-06-18T06:11:24.167Z,90.50
2023-06-18T06:13:51.541Z,85.60
2023-06-18T06:16:18.638Z,85.90
2023-06-18T06:18:46.196Z,84.50
2023-06-18T06:21:14.476Z,85.30
2023-06-18T06:23:41.700Z,85.00
2023-06-18T06:26:09.152Z,85.80
2023-06-18T06:28:37.956Z,85.00
2023-06-18T06:31:06.442Z,84.70
2023-06-18T06:33:33.508Z,84.80
2023-06-18T06:36:00.651Z,84.40
2023-06-18T06:38:28.600Z,88.30
2023-06-18T06:40:56.140Z,85.30
2023-06-18T06:43:25.253Z,85.30
2023-06-18T06:46:11.691Z,85.60
2023-06-18T06:49:08.353Z,87.50
2023-06-18T06:52:00.829Z,86.30
2023-06-18T06:54:27.924Z,85.90
2023-06-18T06:56:54.963Z,85.90
2023-06-18T06:59:21.992Z,86.70
2023-06-18T07:01:49.081Z,86.40
2023-06-18T07:04:16.459Z,87.10
2023-06-18T07:06:43.479Z,90.40
2023-06-18T07:09:10.608Z,89.60
2023-06-18T07:11:41.906Z,89.30
2023-06-18T07:14:08.957Z,88.50
2023-06-18T07:16:36.092Z,88.90
2023-06-18T07:19:03.105Z,89.60
2023-06-18T07:21:30.043Z,89.40
2023-06-18T07:23:57.319Z,89.40
2023-06-18T07:26:24.264Z,89.40
2023-06-18T07:28:51.345Z,89.10
2023-06-18T07:31:18.391Z,89.20
2023-06-18T07:33:45.420Z,89.40
2023-06-18T07:36:12.357Z,89.90
2023-06-18T07:38:39.352Z,90.40
2023-06-18T07:41:06.273Z,90.40
2023-06-18T07:43:33.227Z,90.50
2023-06-18T07:46:00.267Z,90.40
2023-06-18T07:48:27.485Z,90.60
2023-06-18T07:50:54.536Z,90.70
2023-06-18T07:53:21.602Z,90.80
2023-06-18T07:55:49.017Z,90.80
2023-06-18T07:58:16.226Z,90.50
2023-06-18T08:00:43.215Z,90.50
2023-06-18T08:03:10.531Z,90.80
2023-06-18T08:05:37.614Z,90.40
2023-06-18T08:08:04.830Z,90.00
2023-06-18T08:10:31.870Z,90.20
2023-06-18T08:12:59.127Z,90.20
2023-06-18T08:15:26.135Z,90.30
2023-06-18T08:17:53.678Z,90.40
2023-06-18T08:20:21.276Z,90.40
2023-06-18T08:22:48.632Z,90.70
2023-06-18T08:25:15.610Z,90.70
2023-06-18T08:27:42.580Z,90.60
2023-06-18T08:30:09.568Z,90.70
2023-06-18T08:32:39.264Z,91.00
2023-06-18T08:35:09.834Z,91.10
2023-06-18T08:37:37.987Z,91.00
2023-06-18T08:40:05.417Z,91.10
2023-06-18T08:42:32.588Z,91.20
2023-06-18T08:44:59.605Z,91.30
2023-06-18T08:47:28.618Z,91.30
2023-06-18T08:49:58.260Z,91.30
2023-06-18T08:52:26.809Z,91.10
2023-06-18T08:54:55.495Z,91.50
2023-06-18T08:57:28.591Z,91.40
2023-06-18T08:59:56.574Z,91.50
2023-06-18T09:02:23.898Z,91.50
2023-06-18T09:04:51.281Z,91.70
2023-06-18T09:07:18.524Z,92.10
2023-06-18T09:09:46.353Z,92.00
2023-06-18T09:12:14.152Z,92.40
2023-06-18T09:14:41.141Z,92.40
2023-06-18T09:17:08.169Z,92.10
2023-06-18T09:19:35.663Z,92.20
2023-06-18T09:22:23.254Z,92.30
2023-06-18T09:24:59.428Z,92.50
2023-06-18T09:27:33.707Z,92.50
2023-06-18T09:30:00.934Z,92.40
2023-06-18T09:32:27.944Z,92.20
2023-06-18T09:34:55.241Z,92.40
2023-06-18T09:37:22.502Z,92.30
2023-06-18T09:39:54.739Z,92.40
2023-06-18T09:42:28.860Z,92.80
2023-06-18T09:44:56.849Z,93.20
2023-06-18T09:47:24.503Z,93.00
2023-06-18T09:49:52.451Z,93.20
2023-06-18T09:52:24.885Z,94.00
2023-06-18T09:54:51.912Z,94.00
2023-06-18T09:57:19.079Z,93.70
2023-06-18T09:59:47.915Z,93.70
2023-06-18T10:02:24.492Z,93.00
2023-06-18T10:04:51.844Z,94.10
2023-06-18T10:07:19.365Z,93.80
2023-06-18T10:09:48.298Z,92.10
2023-06-18T10:12:18.942Z,91.00
2023-06-18T10:14:47.708Z,92.00
2023-06-18T10:17:45.089Z,91.20
2023-06-18T10:20:15.339Z,90.70
2023-06-18T10:22:46.826Z,90.20
2023-06-18T10:25:14.217Z,89.40
2023-06-18T10:27:41.280Z,89.10
2023-06-18T10:30:09.028Z,88.80
2023-06-18T10:32:37.483Z,88.60
2023-06-18T10:35:12.333Z,88.60
2023-06-18T10:37:39.931Z,88.10
2023-06-18T10:40:07.625Z,86.70
2023-06-18T10:42:36.184Z,85.00
2023-06-18T10:45:09.513Z,85.20
2023-06-18T10:47:37.024Z,84.80
2023-06-18T10:50:04.065Z,84.00
2023-06-18T10:52:31.775Z,83.10
2023-06-18T10:55:10.772Z,81.40
2023-06-18T10:57:42.586Z,80.30
2023-06-18T11:00:26.934Z,79.30
2023-06-18T11:03:01.703Z,78.80
2023-06-18T11:05:37.901Z,78.80
2023-06-18T11:08:06.514Z,78.90
2023-06-18T11:10:37.037Z,78.70
2023-06-18T11:13:05.368Z,78.00
2023-06-18T11:15:32.731Z,78.00
2023-06-18T11:18:02.691Z,79.00
2023-06-18T11:20:34.544Z,79.00
2023-06-18T11:23:02.021Z,79.50
2023-06-18T11:25:29.860Z,79.40
2023-06-18T11:27:59.733Z,78.70
2023-06-18T11:30:27.107Z,78.10
2023-06-18T11:32:54.237Z,77.90
2023-06-18T11:35:21.434Z,77.50
2023-06-18T11:37:48.994Z,75.90
2023-06-18T11:40:16.068Z,75.10
2023-06-18T11:42:53.642Z,75.40
2023-06-18T11:45:22.319Z,74.70
2023-06-18T11:47:50.911Z,75.10
2023-06-18T11:50:18.860Z,75.70
2023-06-18T11:52:46.109Z,75.90
2023-06-18T11:55:13.429Z,75.90
2023-06-18T11:57:40.586Z,75.80
2023-06-18T12:00:11.834Z,76.00
2023-06-18T12:02:42.266Z,76.00
2023-06-18T12:05:10.187Z,75.80
2023-06-18T12:07:43.456Z,76.10
2023-06-18T12:10:11.947Z,76.10
2023-06-18T12:12:38.988Z,75.60
2023-06-18T12:15:15.113Z,75.40
2023-06-18T12:17:48.384Z,74.70
2023-06-18T12:20:16.033Z,74.50
2023-06-18T12:22:43.396Z,73.50
2023-06-18T12:25:10.954Z,74.20
2023-06-18T12:27:38.030Z,74.30
2023-06-18T12:30:09.314Z,74.20
2023-06-18T12:32:37.628Z,74.00
2023-06-18T12:35:18.164Z,72.80
2023-06-18T12:37:46.694Z,73.00
2023-06-18T12:40:19.916Z,73.20
2023-06-18T12:42:47.827Z,73.10
2023-06-18T12:45:15.574Z,72.60
2023-06-18T12:47:43.909Z,72.70
2023-06-18T12:50:11.400Z,73.40
2023-06-18T12:52:39.158Z,74.30
2023-06-18T12:55:10.922Z,73.50
2023-06-18T12:57:37.880Z,74.10
2023-06-18T13:00:14.805Z,74.60
2023-06-18T13:02:41.910Z,75.00
2023-06-18T13:05:09.087Z,75.40
2023-06-18T13:07:36.093Z,75.90
2023-06-18T13:10:03.043Z,76.00
2023-06-18T13:12:30.684Z,76.10
2023-06-18T13:14:57.698Z,76.20
2023-06-18T13:17:24.640Z,76.40
2023-06-18T13:19:59.562Z,76.50
2023-06-18T13:22:27.056Z,76.40
2023-06-18T13:24:57.860Z,76.40
2023-06-18T13:27:25.575Z,76.00
2023-06-18T13:29:54.129Z,76.30
2023-06-18T13:32:21.517Z,76.30
2023-06-18T13:34:49.773Z,76.20
2023-06-18T13:37:17.586Z,76.30
2023-06-18T13:39:47.957Z,76.00
2023-06-18T13:42:18.809Z,76.00
2023-06-18T13:44:45.922Z,76.00
2023-06-18T13:47:13.629Z,75.70
2023-06-18T13:49:41.093Z,75.90
2023-06-18T13:52:08.642Z,75.90
2023-06-18T13:54:36.178Z,76.00
2023-06-18T13:57:03.339Z,76.20
2023-06-18T13:59:30.336Z,76.20
2023-06-18T14:01:57.385Z,76.20
2023-06-18T14:04:25.951Z,76.30
2023-06-18T14:06:54.123Z,76.30
2023-06-18T14:09:21.269Z,76.40
2023-06-18T14:11:49.012Z,76.40
2023-06-18T14:14:16.377Z,76.80
2023-06-18T14:16:43.591Z,77.00
2023-06-18T14:19:11.153Z,77.10
2023-06-18T14:21:39.430Z,77.10
2023-06-18T14:24:06.668Z,77.30
2023-06-18T14:26:34.447Z,77.50
2023-06-18T14:29:01.906Z,77.60
2023-06-18T14:31:29.424Z,78.10
2023-06-18T14:34:07.592Z,78.30
2023-06-18T14:36:38.518Z,78.50
2023-06-18T14:39:07.188Z,78.90
2023-06-18T14:41:34.564Z,79.00
2023-06-18T14:44:01.644Z,79.00
2023-06-18T14:46:29.666Z,79.10
2023-06-18T14:48:56.789Z,79.30
2023-06-18T14:51:23.933Z,79.20
2023-06-18T14:53:52.700Z,79.30
2023-06-18T14:56:21.351Z,79.30
2023-06-18T14:58:48.474Z,79.30
2023-06-18T15:01:15.482Z,79.40
2023-06-18T15:03:43.578Z,79.40
2023-06-18T15:06:10.968Z,79.30
2023-06-18T15:08:38.114Z,79.30
2023-06-18T15:11:05.076Z,79.30
2023-06-18T15:13:32.173Z,79.30
2023-06-18T15:15:59.221Z,79.30
2023-06-18T15:18:26.267Z,79.30
2023-06-18T15:20:53.389Z,79.50
2023-06-18T15:23:21.745Z,79.50
2023-06-18T15:25:48.987Z,80.30
2023-06-18T15:28:17.054Z,79.30
2023-06-18T15:30:44.221Z,79.40
2023-06-18T15:33:11.230Z,79.10
2023-06-18T15:35:38.262Z,79.00
2023-06-18T15:38:05.264Z,79.00
2023-06-18T15:40:32.456Z,79.10
2023-06-18T15:42:59.735Z,79.70
2023-06-18T15:45:27.054Z,79.60
2023-06-18T15:47:54.437Z,79.80
2023-06-18T15:50:21.922Z,80.30
2023-06-18T15:52:48.967Z,81.20
2023-06-18T15:55:15.996Z,81.10
2023-06-18T15:57:42.905Z,81.30
2023-06-18T16:00:11.857Z,81.70
2023-06-18T16:02:38.924Z,81.80
2023-06-18T16:05:09.705Z,82.00
2023-06-18T16:07:48.483Z,82.20
2023-06-18T16:10:15.783Z,82.40
2023-06-18T16:12:42.676Z,82.60
2023-06-18T16:15:09.765Z,82.70
2023-06-18T16:17:37.075Z,82.70
2023-06-18T16:20:04.171Z,82.70
2023-06-18T16:22:31.218Z,82.70
2023-06-18T16:24:58.181Z,82.80
2023-06-18T16:27:25.345Z,82.80
2023-06-18T16:29:52.789Z,82.80
2023-06-18T16:32:20.061Z,82.80
2023-06-18T16:34:47.196Z,83.10
2023-06-18T16:37:14.261Z,82.90
2023-06-18T16:39:41.454Z,83.70
2023-06-18T16:42:08.508Z,83.60
2023-06-18T16:44:42.147Z,84.20
2023-06-18T16:47:09.312Z,83.60
2023-06-18T16:49:36.244Z,83.90
2023-06-18T16:52:03.435Z,88.50
2023-06-18T16:54:30.515Z,84.60
2023-06-18T16:56:57.519Z,84.50
2023-06-18T16:59:25.122Z,85.10
2023-06-18T17:01:52.240Z,84.70
2023-06-18T17:04:21.100Z,84.70
2023-06-18T17:06:48.332Z,84.60
2023-06-18T17:09:15.542Z,84.90
2023-06-18T17:11:43.794Z,84.60
2023-06-18T17:14:10.995Z,84.90
2023-06-18T17:16:38.282Z,85.10
2023-06-18T17:19:05.452Z,85.40
2023-06-18T17:21:39.301Z,86.20
2023-06-18T17:24:11.990Z,86.60
2023-06-18T17:26:41.441Z,86.30
2023-06-18T17:29:10.743Z,90.10
2023-06-18T17:31:37.793Z,88.20
2023-06-18T17:34:04.928Z,91.30
2023-06-18T17:36:39.253Z,94.50
2023-06-18T17:39:10.148Z,96.30
2023-06-18T17:41:37.401Z,98.00
2023-06-18T17:44:05.470Z,99.40
2023-06-18T17:46:33.027Z,99.30
2023-06-18T17:49:08.101Z,99.90
2023-06-18T17:51:35.396Z,99.90
2023-06-18T17:54:02.862Z,99.90
2023-06-18T17:56:32.683Z,99.90
2023-06-18T17:59:00.839Z,99.90
2023-06-18T18:01:29.851Z,99.90
2023-06-18T18:03:57.183Z,99.90
2023-06-18T18:06:24.651Z,99.90
2023-06-18T18:08:52.658Z,99.90
2023-06-18T18:11:20.098Z,99.90
2023-06-18T18:13:47.307Z,99.90
2023-06-18T18:16:14.564Z,99.90
2023-06-18T18:18:41.745Z,99.90
2023-06-18T18:21:10.816Z,99.90
2023-06-18T18:23:39.270Z,99.90
2023-06-18T18:26:11.552Z,99.90
2023-06-18T18:28:39.437Z,99.90
2023-06-18T18:31:06.801Z,99.90
2023-06-18T18:34:00.535Z,99.90
2023-06-18T18:36:27.636Z,99.90
2023-06-18T18:38:54.781Z,99.90
2023-06-18T18:41:24.578Z,99.90
2023-06-18T18:43:51.666Z,99.90
2023-06-18T18:46:18.854Z,99.90
2023-06-18T18:48:46.277Z,99.90
2023-06-18T18:51:13.591Z,99.90
2023-06-18T18:53:40.927Z,99.90
2023-06-18T18:56:08.074Z,99.90
2023-06-18T18:58:35.130Z,99.90
2023-06-18T19:01:02.329Z,99.90
2023-06-18T19:03:29.521Z,99.90
2023-06-18T19:05:56.627Z,99.90
2023-06-18T19:08:23.634Z,99.90
2023-06-18T19:10:50.907Z,99.90
2023-06-18T19:13:18.120Z,99.90
2023-06-18T19:15:45.497Z,99.90
2023-06-18T19:18:12.716Z,99.90
2023-06-18T19:20:39.667Z,99.90
2023-06-18T19:23:06.754Z,99.90
2023-06-18T19:25:34.438Z,99.90
2023-06-18T19:28:01.786Z,99.90
2023-06-18T19:30:28.961Z,99.90
2023-06-18T19:32:56.164Z,99.90
2023-06-18T19:35:23.421Z,99.90
2023-06-18T19:37:50.717Z,99.90
2023-06-18T19:40:17.930Z,99.90
2023-06-18T19:42:49.691Z,99.90
2023-06-18T19:45:17.112Z,99.90
2023-06-18T19:47:47.656Z,99.90
2023-06-18T19:50:14.997Z,99.90
2023-06-18T19:52:42.130Z,99.90
2023-06-18T19:55:09.339Z,99.90
2023-06-18T19:57:36.941Z,99.90
2023-06-18T20:00:05.580Z,99.90
2023-06-18T20:02:42.276Z,99.90
2023-06-18T20:05:11.883Z,99.90
2023-06-18T20:07:39.278Z,99.90
2023-06-18T20:10:07.043Z,99.90
2023-06-18T20:12:34.448Z,99.90
2023-06-18T20:15:05.848Z,99.90
2023-06-18T20:17:33.105Z,99.90
2023-06-18T20:20:00.411Z,99.90
2023-06-18T20:22:29.859Z,99.90
2023-06-18T20:24:59.396Z,99.90
2023-06-18T20:27:26.937Z,99.90
2023-06-18T20:29:53.966Z,99.90
2023-06-18T20:32:21.233Z,99.90
2023-06-18T20:34:51.217Z,99.90
2023-06-18T20:37:18.333Z,99.90
2023-06-18T20:39:48.603Z,99.90
2023-06-18T20:42:15.885Z,99.90
2023-06-18T20:44:48.824Z,99.90
2023-06-18T20:47:16.282Z,99.90
2023-06-18T20:49:43.586Z,99.90
2023-06-18T20:52:16.610Z,99.90
2023-06-18T20:54:43.941Z,99.90
2023-06-18T20:57:11.348Z,99.90
2023-06-18T20:59:45.219Z,99.90
2023-06-18T21:02:15.128Z,99.90
2023-06-18T21:04:47.251Z,99.90
2023-06-18T21:07:14.536Z,99.90
2023-06-18T21:09:41.956Z,99.90
2023-06-18T21:12:09.738Z,99.90
2023-06-18T21:14:38.120Z,99.90
2023-06-18T21:18:35.976Z,99.90
2023-06-18T21:21:14.273Z,99.90
2023-06-18T21:23:49.035Z,99.90
2023-06-18T21:26:19.116Z,99.90
2023-06-18T21:28:54.233Z,99.90
2023-06-18T21:31:27.266Z,99.90
2023-06-18T21:33:58.828Z,99.90
2023-06-18T21:36:31.461Z,99.90
2023-06-18T21:38:59.282Z,99.90
2023-06-18T21:41:27.100Z,99.90
2023-06-18T21:43:54.790Z,99.90
2023-06-18T21:46:23.058Z,99.90
2023-06-18T21:48:50.731Z,99.90
2023-06-18T21:51:21.395Z,99.90
2023-06-18T21:53:52.720Z,99.90
2023-06-18T21:56:23.040Z,99.90
2023-06-18T21:59:01.054Z,99.90
2023-06-18T22:01:34.684Z,99.90
2023-06-18T22:04:06.641Z,99.90
2023-06-18T22:06:48.384Z,99.90
2023-06-18T22:09:16.864Z,99.90
2023-06-18T22:11:44.464Z,99.90
2023-06-18T22:14:15.012Z,99.90
2023-06-18T22:16:54.716Z,99.90
2023-06-18T22:19:23.285Z,99.90
2023-06-18T22:21:51.949Z,99.90
2023-06-18T22:24:19.585Z,99.90
2023-06-18T22:26:56.236Z,99.90
2023-06-18T22:29:34.491Z,99.90
2023-06-18T22:32:01.901Z,99.90
2023-06-18T22:34:41.012Z,99.90
2023-06-18T22:37:12.272Z,99.90
2023-06-18T22:39:39.997Z,99.90
2023-06-18T22:42:12.272Z,99.90
2023-06-18T22:44:44.331Z,99.90
2023-06-18T22:47:14.292Z,99.90
2023-06-18T22:49:41.558Z,99.90
2023-06-18T22:52:10.909Z,99.90
2023-06-18T22:54:38.482Z,99.90
2023-06-18T22:57:06.150Z,99.90
2023-06-18T22:59:33.570Z,99.90
2023-06-18T23:02:01.476Z,99.90
2023-06-18T23:04:28.837Z,99.90
2023-06-18T23:06:56.190Z,99.90
2023-06-18T23:09:23.546Z,99.90
2023-06-18T23:11:53.213Z,99.90
2023-06-18T23:14:20.529Z,99.90
2023-06-18T23:16:50.496Z,99.90
2023-06-18T23:19:18.046Z,99.90
2023-06-18T23:21:47.802Z,99.90
2023-06-18T23:24:18.312Z,99.90
2023-06-18T23:26:47.698Z,99.90
2023-06-18T23:29:17.963Z,99.90
2023-06-18T23:31:49.576Z,99.90
2023-06-18T23:34:17.014Z,99.90
2023-06-18T23:36:49.966Z,99.90
2023-06-18T23:39:17.543Z,99.90
2023-06-18T23:41:44.974Z,99.90
2023-06-18T23:44:12.291Z,99.90
2023-06-18T23:46:40.347Z,99.90
2023-06-18T23:49:07.605Z,99.90
2023-06-18T23:51:35.861Z,99.90
2023-06-18T23:54:03.282Z,99.90
2023-06-18T23:56:30.591Z,99.90
2023-06-18T23:58:57.786Z,99.90
